33.5°F
Current conditions from King Hill
Updated every 5 minutes
 
  Wednesday December 17, 2014

Station Historical Data
Daily Summary for April 12, 2011 Units:  Both    English   Metric
« Previous Day
Next Day »
Daily Weekly Monthly Yearly Custom
  High: Low: Average:
Temperature: 56.2 °F /  13.4 °C 37.9 °F /  3.3 °C 47.2 °F /  8.4 °C
Dew Point: 42.6 °F /  5.9 °C 25.9 °F /  -3.4 °C 32.4 °F /  0.2 °C
Humidity: 78% 36% 58%
Wind Speed: 15.0mph /  24.1km/h - 5.1mph /  8.2km/h
Wind Gust: 24.0mph /  38.6km/h - -
Wind- - WSW
Pressure: 30.14 in /  1020.5 hPa 29.46 in /  997.5 hPa -
Precipitation: 0.00 in /  0 mm    
Historical Graphs
 
 
Tabular Data for April 12, 2011
Time Temperature Dew Point Pressure Wind Wind Speed Wind Gust Humidity Daily Rainfall
00:00 54.4 °F /  12.4 °C 42.5 °F /  5.8 °C 29.46in /  997.5hPa WNW 8.0mph /  12.9km/h 18.0mph /  29km/h 64% 0.54in /  13.7mm
00:05 54.1 °F /  12.3 °C 42.6 °F /  5.9 °C 29.46in /  997.5hPa WNW 9.0mph /  14.5km/h 16.0mph /  25.7km/h 65% 0.00in /  0mm
00:10 53.9 °F /  12.2 °C 41.6 °F /  5.3 °C 29.47in /  997.9hPa NW 10.0mph /  16.1km/h 15.0mph /  24.1km/h 63% 0.00in /  0mm
00:15 53.7 °F /  12.1 °C 41.4 °F /  5.2 °C 29.47in /  997.9hPa WNW 8.0mph /  12.9km/h 17.0mph /  27.4km/h 63% 0.00in /  0mm
00:20 53.5 °F /  11.9 °C 41.2 °F /  5.1 °C 29.47in /  997.9hPa WNW 7.0mph /  11.3km/h 17.0mph /  27.4km/h 63% 0.00in /  0mm
00:25 53.1 °F /  11.7 °C 41.3 °F /  5.2 °C 29.46in /  997.5hPa WNW 5.0mph /  8km/h 16.0mph /  25.7km/h 64% 0.00in /  0mm
00:30 52.8 °F /  11.6 °C 41.0 °F /  5 °C 29.46in /  997.5hPa WNW 4.0mph /  6.4km/h 13.0mph /  20.9km/h 64% 0.00in /  0mm
00:40 52.5 °F /  11.4 °C 40.3 °F /  4.6 °C 29.47in /  997.9hPa West 3.0mph /  4.8km/h 12.0mph /  19.3km/h 63% 0.00in /  0mm
00:45 52.4 °F /  11.3 °C 40.2 °F /  4.6 °C 29.47in /  997.9hPa West 5.0mph /  8km/h 10.0mph /  16.1km/h 63% 0.00in /  0mm
00:50 52.4 °F /  11.3 °C 40.2 °F /  4.6 °C 29.47in /  997.9hPa WSW 1.0mph /  1.6km/h 13.0mph /  20.9km/h 63% 0.00in /  0mm
00:55 52.3 °F /  11.3 °C 40.1 °F /  4.5 °C 29.47in /  997.9hPa NW 1.0mph /  1.6km/h 13.0mph /  20.9km/h 63% 0.00in /  0mm
01:00 52.3 °F /  11.3 °C 40.1 °F /  4.5 °C 29.48in /  998.2hPa WNW 3.0mph /  4.8km/h 13.0mph /  20.9km/h 63% 0.00in /  0mm
01:05 52.2 °F /  11.2 °C 40.0 °F /  4.4 °C 29.48in /  998.2hPa West 3.0mph /  4.8km/h 8.0mph /  12.9km/h 63% 0.00in /  0mm
01:10 52.2 °F /  11.2 °C 40.4 °F /  4.7 °C 29.48in /  998.2hPa WNW 3.0mph /  4.8km/h 12.0mph /  19.3km/h 64% 0.00in /  0mm
01:15 52.0 °F /  11.1 °C 40.6 °F /  4.8 °C 29.49in /  998.5hPa West 4.0mph /  6.4km/h 12.0mph /  19.3km/h 65% 0.00in /  0mm
01:20 51.8 °F /  11 °C 40.0 °F /  4.4 °C 29.49in /  998.5hPa WNW 5.0mph /  8km/h 8.0mph /  12.9km/h 64% 0.00in /  0mm
01:25 51.9 °F /  11.1 °C 40.5 °F /  4.7 °C 29.49in /  998.5hPa WNW 4.0mph /  6.4km/h 10.0mph /  16.1km/h 65% 0.00in /  0mm
01:30 51.8 °F /  11 °C 40.0 °F /  4.4 °C 29.50in /  998.9hPa West 8.0mph /  12.9km/h 14.0mph /  22.5km/h 64% 0.00in /  0mm
01:35 51.7 °F /  10.9 °C 39.9 °F /  4.4 °C 29.50in /  998.9hPa WSW 7.0mph /  11.3km/h 14.0mph /  22.5km/h 64% 0.00in /  0mm
01:40 51.9 °F /  11.1 °C 39.7 °F /  4.3 °C 29.50in /  998.9hPa West 6.0mph /  9.7km/h 18.0mph /  29km/h 63% 0.00in /  0mm
01:45 52.1 °F /  11.2 °C 39.1 °F /  3.9 °C 29.50in /  998.9hPa WNW 14.0mph /  22.5km/h 24.0mph /  38.6km/h 61% 0.00in /  0mm
01:50 52.0 °F /  11.1 °C 39.0 °F /  3.9 °C 29.51in /  999.2hPa West 10.0mph /  16.1km/h 24.0mph /  38.6km/h 61% 0.00in /  0mm
01:55 51.9 °F /  11.1 °C 38.9 °F /  3.8 °C 29.50in /  998.9hPa WNW 9.0mph /  14.5km/h 20.0mph /  32.2km/h 61% 0.00in /  0mm
02:00 51.8 °F /  11 °C 38.8 °F /  3.8 °C 29.51in /  999.2hPa NW 4.0mph /  6.4km/h 20.0mph /  32.2km/h 61% 0.00in /  0mm
02:05 51.6 °F /  10.9 °C 39.0 °F /  3.9 °C 29.51in /  999.2hPa WNW 8.0mph /  12.9km/h 17.0mph /  27.4km/h 62% 0.00in /  0mm
02:10 51.4 °F /  10.8 °C 38.4 °F /  3.6 °C 29.51in /  999.2hPa WNW 7.0mph /  11.3km/h 15.0mph /  24.1km/h 61% 0.00in /  0mm
02:15 51.3 °F /  10.7 °C 38.7 °F /  3.7 °C 29.51in /  999.2hPa NW 5.0mph /  8km/h 13.0mph /  20.9km/h 62% 0.00in /  0mm
02:20 51.0 °F /  10.6 °C 38.4 °F /  3.6 °C 29.52in /  999.5hPa WNW 5.0mph /  8km/h 12.0mph /  19.3km/h 62% 0.00in /  0mm
02:25 50.9 °F /  10.5 °C 38.4 °F /  3.6 °C 29.52in /  999.5hPa WNW 6.0mph /  9.7km/h 12.0mph /  19.3km/h 62% 0.00in /  0mm
02:30 50.8 °F /  10.4 °C 38.3 °F /  3.5 °C 29.52in /  999.5hPa West 7.0mph /  11.3km/h 12.0mph /  19.3km/h 62% 0.00in /  0mm
02:35 50.7 °F /  10.4 °C 38.2 °F /  3.4 °C 29.52in /  999.5hPa West 5.0mph /  8km/h 11.0mph /  17.7km/h 62% 0.00in /  0mm
02:40 50.5 °F /  10.3 °C 38.4 °F /  3.6 °C 29.53in /  999.9hPa WNW 3.0mph /  4.8km/h 11.0mph /  17.7km/h 63% 0.00in /  0mm
02:45 50.3 °F /  10.2 °C 38.2 °F /  3.4 °C 29.53in /  999.9hPa West 9.0mph /  14.5km/h 18.0mph /  29km/h 63% 0.00in /  0mm
02:50 50.1 °F /  10.1 °C 38.0 °F /  3.3 °C 29.53in /  999.9hPa WNW 8.0mph /  12.9km/h 21.0mph /  33.8km/h 63% 0.00in /  0mm
02:55 49.9 °F /  9.9 °C 38.2 °F /  3.4 °C 29.54in /  1000.2hPa WNW 7.0mph /  11.3km/h 21.0mph /  33.8km/h 64% 0.00in /  0mm
03:05 49.6 °F /  9.8 °C 38.3 °F /  3.5 °C 29.55in /  1000.6hPa NW 7.0mph /  11.3km/h 16.0mph /  25.7km/h 65% 0.00in /  0mm
03:10 49.4 °F /  9.7 °C 38.5 °F /  3.6 °C 29.55in /  1000.6hPa WNW 6.0mph /  9.7km/h 15.0mph /  24.1km/h 66% 0.00in /  0mm
03:15 49.2 °F /  9.6 °C 38.3 °F /  3.5 °C 29.55in /  1000.6hPa WNW 7.0mph /  11.3km/h 16.0mph /  25.7km/h 66% 0.00in /  0mm
03:20 49.1 °F /  9.5 °C 38.6 °F /  3.7 °C 29.56in /  1000.9hPa West 5.0mph /  8km/h 16.0mph /  25.7km/h 67% 0.00in /  0mm
03:25 48.8 °F /  9.3 °C 38.7 °F /  3.7 °C 29.57in /  1001.2hPa WNW 11.0mph /  17.7km/h 18.0mph /  29km/h 68% 0.00in /  0mm
03:30 48.7 °F /  9.3 °C 38.6 °F /  3.7 °C 29.58in /  1001.6hPa WNW 10.0mph /  16.1km/h 18.0mph /  29km/h 68% 0.00in /  0mm
03:35 48.5 °F /  9.2 °C 38.8 °F /  3.8 °C 29.58in /  1001.6hPa WNW 10.0mph /  16.1km/h 17.0mph /  27.4km/h 69% 0.00in /  0mm
03:40 48.3 °F /  9.1 °C 38.6 °F /  3.7 °C 29.59in /  1001.9hPa WNW 8.0mph /  12.9km/h 15.0mph /  24.1km/h 69% 0.00in /  0mm
03:45 48.2 °F /  9 °C 38.9 °F /  3.8 °C 29.59in /  1001.9hPa WNW 8.0mph /  12.9km/h 15.0mph /  24.1km/h 70% 0.00in /  0mm
03:50 48.0 °F /  8.9 °C 39.1 °F /  3.9 °C 29.59in /  1001.9hPa West 8.0mph /  12.9km/h 15.0mph /  24.1km/h 71% 0.00in /  0mm
03:55 48.0 °F /  8.9 °C 39.1 °F /  3.9 °C 29.60in /  1002.3hPa NW 11.0mph /  17.7km/h 20.0mph /  32.2km/h 71% 0.00in /  0mm
04:00 47.8 °F /  8.8 °C 38.9 °F /  3.8 °C 29.60in /  1002.3hPa WNW 8.0mph /  12.9km/h 20.0mph /  32.2km/h 71% 0.00in /  0mm
04:05 47.7 °F /  8.7 °C 38.8 °F /  3.8 °C 29.61in /  1002.6hPa WNW 8.0mph /  12.9km/h 15.0mph /  24.1km/h 71% 0.00in /  0mm
04:10 47.6 °F /  8.7 °C 38.7 °F /  3.7 °C 29.61in /  1002.6hPa WNW 11.0mph /  17.7km/h 18.0mph /  29km/h 71% 0.00in /  0mm
04:15 47.5 °F /  8.6 °C 38.6 °F /  3.7 °C 29.62in /  1002.9hPa WNW 10.0mph /  16.1km/h 18.0mph /  29km/h 71% 0.00in /  0mm
04:20 47.4 °F /  8.6 °C 38.1 °F /  3.4 °C 29.62in /  1002.9hPa NW 8.0mph /  12.9km/h 16.0mph /  25.7km/h 70% 0.00in /  0mm
04:25 47.2 °F /  8.4 °C 37.9 °F /  3.3 °C 29.63in /  1003.3hPa NW 6.0mph /  9.7km/h 15.0mph /  24.1km/h 70% 0.00in /  0mm
04:30 46.9 °F /  8.3 °C 37.3 °F /  2.9 °C 29.64in /  1003.6hPa NW 12.0mph /  19.3km/h 19.0mph /  30.6km/h 69% 0.00in /  0mm
04:35 46.8 °F /  8.2 °C 37.5 °F /  3.1 °C 29.63in /  1003.3hPa WNW 7.0mph /  11.3km/h 19.0mph /  30.6km/h 70% 0.00in /  0mm
04:40 46.6 °F /  8.1 °C 37.3 °F /  2.9 °C 29.64in /  1003.6hPa NW 8.0mph /  12.9km/h 24.0mph /  38.6km/h 70% 0.00in /  0mm
04:45 46.5 °F /  8.1 °C 37.3 °F /  2.9 °C 29.65in /  1003.9hPa WNW 7.0mph /  11.3km/h 24.0mph /  38.6km/h 70% 0.00in /  0mm
04:50 46.3 °F /  7.9 °C 37.1 °F /  2.8 °C 29.65in /  1003.9hPa NNW 12.0mph /  19.3km/h 24.0mph /  38.6km/h 70% 0.00in /  0mm
04:55 45.7 °F /  7.6 °C 37.2 °F /  2.9 °C 29.67in /  1004.6hPa NW 13.0mph /  20.9km/h 22.0mph /  35.4km/h 72% 0.00in /  0mm
05:05 42.8 °F /  6 °C 36.4 °F /  2.4 °C 29.68in /  1005hPa NW 10.0mph /  16.1km/h 23.0mph /  37km/h 78% 0.00in /  0mm
05:10 42.3 °F /  5.7 °C 35.9 °F /  2.2 °C 29.68in /  1005hPa NW 9.0mph /  14.5km/h 23.0mph /  37km/h 78% 0.00in /  0mm
05:15 42.1 °F /  5.6 °C 35.7 °F /  2.1 °C 29.69in /  1005.3hPa NW 9.0mph /  14.5km/h 17.0mph /  27.4km/h 78% 0.00in /  0mm
05:20 42.0 °F /  5.6 °C 35.6 °F /  2 °C 29.69in /  1005.3hPa NNW 5.0mph /  8km/h 16.0mph /  25.7km/h 78% 0.00in /  0mm
05:25 41.8 °F /  5.4 °C 34.8 °F /  1.6 °C 29.69in /  1005.3hPa NNW 8.0mph /  12.9km/h 17.0mph /  27.4km/h 76% 0.00in /  0mm
05:30 41.6 °F /  5.3 °C 33.9 °F /  1.1 °C 29.70in /  1005.6hPa NW 15.0mph /  24.1km/h 23.0mph /  37km/h 74% 0.00in /  0mm
05:35 41.5 °F /  5.3 °C 33.2 °F /  0.7 °C 29.71in /  1006hPa NW 8.0mph /  12.9km/h 23.0mph /  37km/h 72% 0.00in /  0mm
05:40 41.2 °F /  5.1 °C 32.5 °F /  0.3 °C 29.71in /  1006hPa NW 10.0mph /  16.1km/h 19.0mph /  30.6km/h 71% 0.00in /  0mm
05:45 40.9 °F /  4.9 °C 31.9 °F /  -0.1 °C 29.71in /  1006hPa NW 7.0mph /  11.3km/h 17.0mph /  27.4km/h 70% 0.00in /  0mm
05:50 40.6 °F /  4.8 °C 31.9 °F /  -0.1 °C 29.72in /  1006.3hPa NNW 10.0mph /  16.1km/h 22.0mph /  35.4km/h 71% 0.00in /  0mm
05:55 40.2 °F /  4.6 °C 31.6 °F /  -0.2 °C 29.72in /  1006.3hPa NNW 10.0mph /  16.1km/h 22.0mph /  35.4km/h 71% 0.00in /  0mm
06:00 39.7 °F /  4.3 °C 31.1 °F /  -0.5 °C 29.72in /  1006.3hPa NNW 8.0mph /  12.9km/h 20.0mph /  32.2km/h 71% 0.00in /  0mm
06:05 39.3 °F /  4.1 °C 30.7 °F /  -0.7 °C 29.73in /  1006.7hPa NW 10.0mph /  16.1km/h 19.0mph /  30.6km/h 71% 0.00in /  0mm
06:10 39.1 °F /  3.9 °C 30.5 °F /  -0.8 °C 29.73in /  1006.7hPa NW 12.0mph /  19.3km/h 21.0mph /  33.8km/h 71% 0.00in /  0mm
06:15 38.9 °F /  3.8 °C 30.3 °F /  -0.9 °C 29.75in /  1007.3hPa NNW 6.0mph /  9.7km/h 24.0mph /  38.6km/h 71% 0.00in /  0mm
06:20 38.7 °F /  3.7 °C 30.1 °F /  -1.1 °C 29.75in /  1007.3hPa NNW 6.0mph /  9.7km/h 24.0mph /  38.6km/h 71% 0.00in /  0mm
06:25 38.6 °F /  3.7 °C 30.4 °F /  -0.9 °C 29.75in /  1007.3hPa NNW 6.0mph /  9.7km/h 18.0mph /  29km/h 72% 0.00in /  0mm
06:30 38.4 °F /  3.6 °C 30.2 °F /  -1 °C 29.76in /  1007.7hPa NNW 4.0mph /  6.4km/h 15.0mph /  24.1km/h 72% 0.00in /  0mm
06:35 38.2 °F /  3.4 °C 30.3 °F /  -0.9 °C 29.76in /  1007.7hPa North 3.0mph /  4.8km/h 10.0mph /  16.1km/h 73% 0.00in /  0mm
06:40 38.2 °F /  3.4 °C 30.3 °F /  -0.9 °C 29.77in /  1008hPa NNW 5.0mph /  8km/h 12.0mph /  19.3km/h 73% 0.00in /  0mm
06:45 38.1 °F /  3.4 °C 30.2 °F /  -1 °C 29.77in /  1008hPa NNW 7.0mph /  11.3km/h 14.0mph /  22.5km/h 73% 0.00in /  0mm
06:50 38.1 °F /  3.4 °C 30.2 °F /  -1 °C 29.77in /  1008hPa NW 4.0mph /  6.4km/h 14.0mph /  22.5km/h 73% 0.00in /  0mm
06:55 38.0 °F /  3.3 °C 30.1 °F /  -1.1 °C 29.78in /  1008.4hPa NW 6.0mph /  9.7km/h 13.0mph /  20.9km/h 73% 0.00in /  0mm
07:00 38.0 °F /  3.3 °C 30.5 °F /  -0.8 °C 29.78in /  1008.4hPa NNW 4.0mph /  6.4km/h 13.0mph /  20.9km/h 74% 0.00in /  0mm
07:05 37.9 °F /  3.3 °C 30.4 °F /  -0.9 °C 29.78in /  1008.4hPa NNW 5.0mph /  8km/h 12.0mph /  19.3km/h 74% 0.00in /  0mm
07:10 38.0 °F /  3.3 °C 30.5 °F /  -0.8 °C 29.79in /  1008.7hPa NNW 6.0mph /  9.7km/h 12.0mph /  19.3km/h 74% 0.00in /  0mm
07:15 37.9 °F /  3.3 °C 30.4 °F /  -0.9 °C 29.79in /  1008.7hPa NW 6.0mph /  9.7km/h 12.0mph /  19.3km/h 74% 0.00in /  0mm
07:20 38.0 °F /  3.3 °C 30.5 °F /  -0.8 °C 29.79in /  1008.7hPa NNW 5.0mph /  8km/h 12.0mph /  19.3km/h 74% 0.00in /  0mm
07:25 38.0 °F /  3.3 °C 30.5 °F /  -0.8 °C 29.80in /  1009hPa NNW 7.0mph /  11.3km/h 16.0mph /  25.7km/h 74% 0.00in /  0mm
07:30 38.2 °F /  3.4 °C 30.6 °F /  -0.8 °C 29.80in /  1009hPa North 5.0mph /  8km/h 18.0mph /  29km/h 74% 0.00in /  0mm
07:35 38.6 °F /  3.7 °C 31.0 °F /  -0.6 °C 29.80in /  1009hPa NW 4.0mph /  6.4km/h 18.0mph /  29km/h 74% 0.00in /  0mm
07:40 38.9 °F /  3.8 °C 31.0 °F /  -0.6 °C 29.80in /  1009hPa NNW 6.0mph /  9.7km/h 16.0mph /  25.7km/h 73% 0.00in /  0mm
07:45 39.2 °F /  4 °C 30.9 °F /  -0.6 °C 29.80in /  1009hPa NNW 7.0mph /  11.3km/h 16.0mph /  25.7km/h 72% 0.00in /  0mm
07:50 39.3 °F /  4.1 °C 31.0 °F /  -0.6 °C 29.80in /  1009hPa NNW 8.0mph /  12.9km/h 13.0mph /  20.9km/h 72% 0.00in /  0mm
07:55 39.5 °F /  4.2 °C 30.9 °F /  -0.6 °C 29.80in /  1009hPa NNW 7.0mph /  11.3km/h 16.0mph /  25.7km/h 71% 0.00in /  0mm
08:00 39.8 °F /  4.3 °C 31.5 °F /  -0.3 °C 29.81in /  1009.4hPa NNE 2.0mph /  3.2km/h 16.0mph /  25.7km/h 72% 0.00in /  0mm
08:05 40.3 °F /  4.6 °C 31.7 °F /  -0.2 °C 29.81in /  1009.4hPa NNW 6.0mph /  9.7km/h 13.0mph /  20.9km/h 71% 0.00in /  0mm
08:09 40.5 °F /  4.7 °C 31.8 °F /  -0.1 °C 29.81in /  1009.4hPa North 2.0mph /  3.2km/h 11.0mph /  17.7km/h 71% 0.00in /  0mm
08:15 40.8 °F /  4.9 °C 31.4 °F /  -0.3 °C 29.81in /  1009.4hPa NNW 6.0mph /  9.7km/h 10.0mph /  16.1km/h 69% 0.00in /  0mm
08:20 40.8 °F /  4.9 °C 31.4 °F /  -0.3 °C 29.82in /  1009.7hPa NNW 7.0mph /  11.3km/h 14.0mph /  22.5km/h 69% 0.00in /  0mm
08:25 40.8 °F /  4.9 °C 31.4 °F /  -0.3 °C 29.82in /  1009.7hPa NNW 8.0mph /  12.9km/h 15.0mph /  24.1km/h 69% 0.00in /  0mm
08:30 41.1 °F /  5.1 °C 31.3 °F /  -0.4 °C 29.83in /  1010hPa NNW 7.0mph /  11.3km/h 15.0mph /  24.1km/h 68% 0.00in /  0mm
08:35 41.4 °F /  5.2 °C 32.0 °F /  0 °C 29.82in /  1009.7hPa North 3.0mph /  4.8km/h 15.0mph /  24.1km/h 69% 0.00in /  0mm
08:40 41.8 °F /  5.4 °C 32.0 °F /  0 °C 29.83in /  1010hPa NNW 5.0mph /  8km/h 11.0mph /  17.7km/h 68% 0.00in /  0mm
08:45 42.3 °F /  5.7 °C 32.1 °F /  0.1 °C 29.84in /  1010.4hPa North 4.0mph /  6.4km/h 11.0mph /  17.7km/h 67% 0.00in /  0mm
08:50 42.2 °F /  5.7 °C 31.7 °F /  -0.2 °C 29.84in /  1010.4hPa NW 10.0mph /  16.1km/h 15.0mph /  24.1km/h 66% 0.00in /  0mm
08:55 42.0 °F /  5.6 °C 31.8 °F /  -0.1 °C 29.84in /  1010.4hPa NNW 6.0mph /  9.7km/h 15.0mph /  24.1km/h 67% 0.00in /  0mm
09:00 42.5 °F /  5.8 °C 32.7 °F /  0.4 °C 29.85in /  1010.7hPa North 2.0mph /  3.2km/h 12.0mph /  19.3km/h 68% 0.00in /  0mm
09:05 43.0 °F /  6.1 °C 32.4 °F /  0.2 °C 29.85in /  1010.7hPa NW 5.0mph /  8km/h 14.0mph /  22.5km/h 66% 0.00in /  0mm
09:10 43.5 °F /  6.4 °C 32.9 °F /  0.5 °C 29.86in /  1011.1hPa NNW 6.0mph /  9.7km/h 15.0mph /  24.1km/h 66% 0.00in /  0mm
09:14 43.8 °F /  6.6 °C 32.4 °F /  0.2 °C 29.86in /  1011.1hPa NNW 4.0mph /  6.4km/h 15.0mph /  24.1km/h 64% 0.00in /  0mm
09:20 43.9 °F /  6.6 °C 32.9 °F /  0.5 °C 29.87in /  1011.4hPa North 2.0mph /  3.2km/h 12.0mph /  19.3km/h 65% 0.00in /  0mm
09:25 44.2 °F /  6.8 °C 32.8 °F /  0.4 °C 29.87in /  1011.4hPa North 4.0mph /  6.4km/h 10.0mph /  16.1km/h 64% 0.00in /  0mm
09:30 44.3 °F /  6.8 °C 32.1 °F /  0.1 °C 29.87in /  1011.4hPa North 3.0mph /  4.8km/h 12.0mph /  19.3km/h 62% 0.00in /  0mm
09:35 44.1 °F /  6.7 °C 32.7 °F /  0.4 °C 29.87in /  1011.4hPa North 3.0mph /  4.8km/h 12.0mph /  19.3km/h 64% 0.00in /  0mm
09:40 44.1 °F /  6.7 °C 32.3 °F /  0.2 °C 29.87in /  1011.4hPa North 2.0mph /  3.2km/h 9.0mph /  14.5km/h 63% 0.00in /  0mm
09:45 43.7 °F /  6.5 °C 31.5 °F /  -0.3 °C 29.88in /  1011.7hPa NNW 5.0mph /  8km/h 12.0mph /  19.3km/h 62% 0.00in /  0mm
09:50 44.2 °F /  6.8 °C 33.2 °F /  0.7 °C 29.88in /  1011.7hPa NW 6.0mph /  9.7km/h 13.0mph /  20.9km/h 65% 0.00in /  0mm
09:55 44.4 °F /  6.9 °C 33.0 °F /  0.6 °C 29.88in /  1011.7hPa NNW 5.0mph /  8km/h 13.0mph /  20.9km/h 64% 0.00in /  0mm
10:00 45.0 °F /  7.2 °C 33.2 °F /  0.7 °C 29.89in /  1012.1hPa NNW 4.0mph /  6.4km/h 11.0mph /  17.7km/h 63% 0.00in /  0mm
10:05 45.4 °F /  7.4 °C 32.7 °F /  0.4 °C 29.89in /  1012.1hPa North 3.0mph /  4.8km/h 11.0mph /  17.7km/h 61% 0.00in /  0mm
10:10 45.5 °F /  7.5 °C 32.8 °F /  0.4 °C 29.90in /  1012.4hPa NNW 5.0mph /  8km/h 11.0mph /  17.7km/h 61% 0.00in /  0mm
10:15 45.5 °F /  7.5 °C 32.4 °F /  0.2 °C 29.90in /  1012.4hPa NNW 6.0mph /  9.7km/h 11.0mph /  17.7km/h 60% 0.00in /  0mm
10:20 45.5 °F /  7.5 °C 32.0 °F /  0 °C 29.90in /  1012.4hPa NNW 6.0mph /  9.7km/h 12.0mph /  19.3km/h 59% 0.00in /  0mm
10:25 45.5 °F /  7.5 °C 33.2 °F /  0.7 °C 29.91in /  1012.8hPa NNW 4.0mph /  6.4km/h 12.0mph /  19.3km/h 62% 0.00in /  0mm
10:30 45.7 °F /  7.6 °C 32.2 °F /  0.1 °C 29.91in /  1012.8hPa NNW 4.0mph /  6.4km/h 11.0mph /  17.7km/h 59% 0.00in /  0mm
10:35 45.9 °F /  7.7 °C 32.4 °F /  0.2 °C 29.91in /  1012.8hPa North 4.0mph /  6.4km/h 10.0mph /  16.1km/h 59% 0.00in /  0mm
10:45 47.2 °F /  8.4 °C 32.7 °F /  0.4 °C 29.91in /  1012.8hPa NNE 4.0mph /  6.4km/h 9.0mph /  14.5km/h 57% 0.00in /  0mm
10:50 47.4 °F /  8.6 °C 32.9 °F /  0.5 °C 29.91in /  1012.8hPa NNW 2.0mph /  3.2km/h 9.0mph /  14.5km/h 57% 0.00in /  0mm
10:55 47.2 °F /  8.4 °C 32.7 °F /  0.4 °C 29.92in /  1013.1hPa NW 5.0mph /  8km/h 10.0mph /  16.1km/h 57% 0.00in /  0mm
11:00 46.5 °F /  8.1 °C 32.5 °F /  0.3 °C 29.92in /  1013.1hPa NNW 4.0mph /  6.4km/h 12.0mph /  19.3km/h 58% 0.00in /  0mm
11:05 46.4 °F /  8 °C 33.3 °F /  0.7 °C 29.92in /  1013.1hPa NW 3.0mph /  4.8km/h 12.0mph /  19.3km/h 60% 0.00in /  0mm
11:10 46.4 °F /  8 °C 32.0 °F /  0 °C 29.93in /  1013.4hPa NW 5.0mph /  8km/h 14.0mph /  22.5km/h 57% 0.00in /  0mm
11:15 46.3 °F /  7.9 °C 32.8 °F /  0.4 °C 29.93in /  1013.4hPa NW 8.0mph /  12.9km/h 16.0mph /  25.7km/h 59% 0.00in /  0mm
11:20 46.1 °F /  7.8 °C 31.3 °F /  -0.4 °C 29.93in /  1013.4hPa NW 5.0mph /  8km/h 16.0mph /  25.7km/h 56% 0.00in /  0mm
11:25 46.8 °F /  8.2 °C 31.5 °F /  -0.3 °C 29.94in /  1013.8hPa NE 3.0mph /  4.8km/h 10.0mph /  16.1km/h 55% 0.00in /  0mm
11:30 47.4 °F /  8.6 °C 32.0 °F /  0 °C 29.94in /  1013.8hPa North 4.0mph /  6.4km/h 10.0mph /  16.1km/h 55% 0.00in /  0mm
11:35 47.6 °F /  8.7 °C 32.2 °F /  0.1 °C 29.94in /  1013.8hPa NNW 3.0mph /  4.8km/h 10.0mph /  16.1km/h 55% 0.00in /  0mm
11:40 47.8 °F /  8.8 °C 32.0 °F /  0 °C 29.94in /  1013.8hPa NNW 3.0mph /  4.8km/h 10.0mph /  16.1km/h 54% 0.00in /  0mm
11:45 47.9 °F /  8.8 °C 32.1 °F /  0.1 °C 29.94in /  1013.8hPa NNW 4.0mph /  6.4km/h 10.0mph /  16.1km/h 54% 0.00in /  0mm
11:50 48.3 °F /  9.1 °C 32.0 °F /  0 °C 29.95in /  1014.1hPa North 4.0mph /  6.4km/h 10.0mph /  16.1km/h 53% 0.00in /  0mm
11:55 48.6 °F /  9.2 °C 31.3 °F /  -0.4 °C 29.95in /  1014.1hPa ENE 1.0mph /  1.6km/h 10.0mph /  16.1km/h 51% 0.00in /  0mm
11:59 48.5 °F /  9.2 °C 32.6 °F /  0.3 °C 29.95in /  1014.1hPa NW 2.0mph /  3.2km/h 7.0mph /  11.3km/h 54% 0.00in /  0mm
12:05 49.0 °F /  9.4 °C 31.2 °F /  -0.4 °C 29.95in /  1014.1hPa NNE 3.0mph /  4.8km/h 10.0mph /  16.1km/h 50% 0.00in /  0mm
12:10 49.0 °F /  9.4 °C 31.7 °F /  -0.2 °C 29.96in /  1014.4hPa NNW 5.0mph /  8km/h 11.0mph /  17.7km/h 51% 0.00in /  0mm
12:15 48.3 °F /  9.1 °C 32.0 °F /  0 °C 29.96in /  1014.4hPa NW 5.0mph /  8km/h 12.0mph /  19.3km/h 53% 0.00in /  0mm
12:20 48.1 °F /  8.9 °C 31.3 °F /  -0.4 °C 29.96in /  1014.4hPa NW 8.0mph /  12.9km/h 14.0mph /  22.5km/h 52% 0.00in /  0mm
12:25 47.5 °F /  8.6 °C 30.8 °F /  -0.7 °C 29.97in /  1014.8hPa West 4.0mph /  6.4km/h 14.0mph /  22.5km/h 52% 0.00in /  0mm
12:30 47.9 °F /  8.8 °C 32.1 °F /  0.1 °C 29.97in /  1014.8hPa NNW 6.0mph /  9.7km/h 14.0mph /  22.5km/h 54% 0.00in /  0mm
12:35 48.0 °F /  8.9 °C 30.3 °F /  -0.9 °C 29.98in /  1015.1hPa WNW 6.0mph /  9.7km/h 13.0mph /  20.9km/h 50% 0.00in /  0mm
12:40 48.2 °F /  9 °C 31.4 °F /  -0.3 °C 29.98in /  1015.1hPa NW 5.0mph /  8km/h 13.0mph /  20.9km/h 52% 0.00in /  0mm
12:45 48.5 °F /  9.2 °C 30.7 °F /  -0.7 °C 29.99in /  1015.5hPa NW 7.0mph /  11.3km/h 14.0mph /  22.5km/h 50% 0.00in /  0mm
12:50 47.7 °F /  8.7 °C 31.4 °F /  -0.3 °C 29.99in /  1015.5hPa WNW 5.0mph /  8km/h 14.0mph /  22.5km/h 53% 0.00in /  0mm
12:55 48.4 °F /  9.1 °C 29.1 °F /  -1.6 °C 29.99in /  1015.5hPa NW 6.0mph /  9.7km/h 13.0mph /  20.9km/h 47% 0.00in /  0mm
13:00 48.3 °F /  9.1 °C 30.0 °F /  -1.1 °C 30.00in /  1015.8hPa WNW 4.0mph /  6.4km/h 13.0mph /  20.9km/h 49% 0.00in /  0mm
13:04 48.8 °F /  9.3 °C 30.0 °F /  -1.1 °C 30.00in /  1015.8hPa NW 6.0mph /  9.7km/h 13.0mph /  20.9km/h 48% 0.00in /  0mm
13:10 48.9 °F /  9.4 °C 30.1 °F /  -1.1 °C 30.00in /  1015.8hPa WNW 6.0mph /  9.7km/h 14.0mph /  22.5km/h 48% 0.00in /  0mm
13:14 49.2 °F /  9.6 °C 29.8 °F /  -1.2 °C 30.00in /  1015.8hPa NNW 7.0mph /  11.3km/h 14.0mph /  22.5km/h 47% 0.00in /  0mm
13:20 49.1 °F /  9.5 °C 28.7 °F /  -1.8 °C 30.01in /  1016.1hPa NW 5.0mph /  8km/h 13.0mph /  20.9km/h 45% 0.00in /  0mm
13:25 49.6 °F /  9.8 °C 30.2 °F /  -1 °C 30.01in /  1016.1hPa NNW 3.0mph /  4.8km/h 10.0mph /  16.1km/h 47% 0.00in /  0mm
13:30 49.5 °F /  9.7 °C 29.6 °F /  -1.3 °C 30.01in /  1016.1hPa West 1.0mph /  1.6km/h 9.0mph /  14.5km/h 46% 0.00in /  0mm
13:35 50.1 °F /  10.1 °C 30.1 °F /  -1.1 °C 30.01in /  1016.1hPa NNW 5.0mph /  8km/h 12.0mph /  19.3km/h 46% 0.00in /  0mm
13:40 50.5 °F /  10.3 °C 29.4 °F /  -1.4 °C 30.02in /  1016.5hPa NW 4.0mph /  6.4km/h 12.0mph /  19.3km/h 44% 0.00in /  0mm
13:45 50.1 °F /  10.1 °C 29.0 °F /  -1.7 °C 30.02in /  1016.5hPa NW 5.0mph /  8km/h 11.0mph /  17.7km/h 44% 0.00in /  0mm
13:50 50.3 °F /  10.2 °C 29.8 °F /  -1.2 °C 30.03in /  1016.8hPa WNW 5.0mph /  8km/h 10.0mph /  16.1km/h 45% 0.00in /  0mm
13:54 50.6 °F /  10.3 °C 29.5 °F /  -1.4 °C 30.03in /  1016.8hPa NW 7.0mph /  11.3km/h 10.0mph /  16.1km/h 44% 0.00in /  0mm
14:00 50.6 °F /  10.3 °C 30.0 °F /  -1.1 °C 30.03in /  1016.8hPa Calm   10.0mph /  16.1km/h 45% 0.00in /  0mm
14:05 50.7 °F /  10.4 °C 29.6 °F /  -1.3 °C 30.03in /  1016.8hPa WNW 4.0mph /  6.4km/h 9.0mph /  14.5km/h 44% 0.00in /  0mm
14:09 50.7 °F /  10.4 °C 29.0 °F /  -1.7 °C 30.03in /  1016.8hPa NE 3.0mph /  4.8km/h 9.0mph /  14.5km/h 43% 0.00in /  0mm
14:15 51.2 °F /  10.7 °C 29.5 °F /  -1.4 °C 30.02in /  1016.5hPa NNE 4.0mph /  6.4km/h 7.0mph /  11.3km/h 43% 0.00in /  0mm
14:19 51.4 °F /  10.8 °C 30.8 °F /  -0.7 °C 30.02in /  1016.5hPa NNE 3.0mph /  4.8km/h 10.0mph /  16.1km/h 45% 0.00in /  0mm
14:25 51.4 °F /  10.8 °C 29.1 °F /  -1.6 °C 30.02in /  1016.5hPa NNE 1.0mph /  1.6km/h 10.0mph /  16.1km/h 42% 0.00in /  0mm
14:30 51.0 °F /  10.6 °C 28.1 °F /  -2.2 °C 30.02in /  1016.5hPa WNW 2.0mph /  3.2km/h 7.0mph /  11.3km/h 41% 0.00in /  0mm
14:35 51.3 °F /  10.7 °C 30.1 °F /  -1.1 °C 30.01in /  1016.1hPa NE 1.0mph /  1.6km/h 7.0mph /  11.3km/h 44% 0.00in /  0mm
14:39 51.5 °F /  10.8 °C 30.9 °F /  -0.6 °C 30.01in /  1016.1hPa North 4.0mph /  6.4km/h 11.0mph /  17.7km/h 45% 0.00in /  0mm
14:45 51.6 °F /  10.9 °C 29.3 °F /  -1.5 °C 30.01in /  1016.1hPa ENE 4.0mph /  6.4km/h 11.0mph /  17.7km/h 42% 0.00in /  0mm
14:50 51.5 °F /  10.8 °C 29.7 °F /  -1.3 °C 30.01in /  1016.1hPa North 4.0mph /  6.4km/h 11.0mph /  17.7km/h 43% 0.00in /  0mm
14:55 51.9 °F /  11.1 °C 29.5 °F /  -1.4 °C 30.01in /  1016.1hPa NNE 3.0mph /  4.8km/h 10.0mph /  16.1km/h 42% 0.00in /  0mm
14:59 51.8 °F /  11 °C 30.0 °F /  -1.1 °C 30.01in /  1016.1hPa North 2.0mph /  3.2km/h 10.0mph /  16.1km/h 43% 0.00in /  0mm
15:05 52.0 °F /  11.1 °C 30.2 °F /  -1 °C 30.01in /  1016.1hPa NNE 1.0mph /  1.6km/h 9.0mph /  14.5km/h 43% 0.00in /  0mm
15:09 53.0 °F /  11.7 °C 31.1 °F /  -0.5 °C 30.01in /  1016.1hPa North 1.0mph /  1.6km/h 7.0mph /  11.3km/h 43% 0.00in /  0mm
15:14 53.4 °F /  11.9 °C 30.9 °F /  -0.6 °C 30.01in /  1016.1hPa NE 1.0mph /  1.6km/h 7.0mph /  11.3km/h 42% 0.00in /  0mm
15:20 53.2 °F /  11.8 °C 30.7 °F /  -0.7 °C 30.01in /  1016.1hPa NNE 4.0mph /  6.4km/h 8.0mph /  12.9km/h 42% 0.00in /  0mm
15:24 53.0 °F /  11.7 °C 29.9 °F /  -1.2 °C 30.01in /  1016.1hPa ENE 1.0mph /  1.6km/h 9.0mph /  14.5km/h 41% 0.00in /  0mm
15:30 53.0 °F /  11.7 °C 30.5 °F /  -0.8 °C 30.00in /  1015.8hPa NE 1.0mph /  1.6km/h 9.0mph /  14.5km/h 42% 0.00in /  0mm
15:34 53.2 °F /  11.8 °C 30.1 °F /  -1.1 °C 30.00in /  1015.8hPa NNE 3.0mph /  4.8km/h 9.0mph /  14.5km/h 41% 0.00in /  0mm
15:40 53.0 °F /  11.7 °C 29.3 °F /  -1.5 °C 30.00in /  1015.8hPa NE 4.0mph /  6.4km/h 10.0mph /  16.1km/h 40% 0.00in /  0mm
15:45 52.2 °F /  11.2 °C 28.6 °F /  -1.9 °C 30.00in /  1015.8hPa NE 4.0mph /  6.4km/h 12.0mph /  19.3km/h 40% 0.00in /  0mm
15:50 52.5 °F /  11.4 °C 30.1 °F /  -1.1 °C 29.99in /  1015.5hPa ENE 4.0mph /  6.4km/h 12.0mph /  19.3km/h 42% 0.00in /  0mm
15:54 53.5 °F /  11.9 °C 31.0 °F /  -0.6 °C 29.99in /  1015.5hPa Calm   9.0mph /  14.5km/h 42% 0.00in /  0mm
16:00 54.5 °F /  12.5 °C 29.4 °F /  -1.4 °C 29.99in /  1015.5hPa NNW 4.0mph /  6.4km/h 10.0mph /  16.1km/h 38% 0.00in /  0mm
16:04 55.0 °F /  12.8 °C 29.9 °F /  -1.2 °C 29.99in /  1015.5hPa NNE 5.0mph /  8km/h 10.0mph /  16.1km/h 38% 0.00in /  0mm
16:10 55.0 °F /  12.8 °C 28.5 °F /  -1.9 °C 29.99in /  1015.5hPa NNE 4.0mph /  6.4km/h 10.0mph /  16.1km/h 36% 0.00in /  0mm
16:14 54.3 °F /  12.4 °C 29.2 °F /  -1.6 °C 29.99in /  1015.5hPa NE 1.0mph /  1.6km/h 11.0mph /  17.7km/h 38% 0.00in /  0mm
16:20 54.6 °F /  12.6 °C 29.5 °F /  -1.4 °C 29.99in /  1015.5hPa North 2.0mph /  3.2km/h 11.0mph /  17.7km/h 38% 0.00in /  0mm
16:24 55.0 °F /  12.8 °C 30.5 °F /  -0.8 °C 29.99in /  1015.5hPa NNE 5.0mph /  8km/h 11.0mph /  17.7km/h 39% 0.00in /  0mm
16:30 55.1 °F /  12.8 °C 29.3 °F /  -1.5 °C 29.99in /  1015.5hPa NE 4.0mph /  6.4km/h 11.0mph /  17.7km/h 37% 0.00in /  0mm
16:34 55.3 °F /  12.9 °C 31.4 °F /  -0.3 °C 29.99in /  1015.5hPa NE 2.0mph /  3.2km/h 10.0mph /  16.1km/h 40% 0.00in /  0mm
16:39 55.1 °F /  12.8 °C 28.6 °F /  -1.9 °C 29.99in /  1015.5hPa NE 4.0mph /  6.4km/h 11.0mph /  17.7km/h 36% 0.00in /  0mm
16:45 55.0 °F /  12.8 °C 31.1 °F /  -0.5 °C 29.99in /  1015.5hPa North 3.0mph /  4.8km/h 11.0mph /  17.7km/h 40% 0.00in /  0mm
16:49 55.3 °F /  12.9 °C 30.1 °F /  -1.1 °C 30.00in /  1015.8hPa East 2.0mph /  3.2km/h 9.0mph /  14.5km/h 38% 0.00in /  0mm
16:55 54.7 °F /  12.6 °C 30.2 °F /  -1 °C 30.00in /  1015.8hPa NNE 3.0mph /  4.8km/h 9.0mph /  14.5km/h 39% 0.00in /  0mm
16:59 54.8 °F /  12.7 °C 30.3 °F /  -0.9 °C 30.01in /  1016.1hPa North 1.0mph /  1.6km/h 9.0mph /  14.5km/h 39% 0.00in /  0mm
17:04 55.5 °F /  13.1 °C 32.8 °F /  0.4 °C 30.02in /  1016.5hPa Calm   7.0mph /  11.3km/h 42% 0.00in /  0mm
17:10 55.5 °F /  13.1 °C 29.7 °F /  -1.3 °C 30.02in /  1016.5hPa NNE 2.0mph /  3.2km/h 6.0mph /  9.7km/h 37% 0.00in /  0mm
17:14 55.5 °F /  13.1 °C 31.0 °F /  -0.6 °C 30.02in /  1016.5hPa NE 2.0mph /  3.2km/h 6.0mph /  9.7km/h 39% 0.00in /  0mm
17:20 55.7 °F /  13.2 °C 30.5 °F /  -0.8 °C 30.02in /  1016.5hPa NNE 3.0mph /  4.8km/h 8.0mph /  12.9km/h 38% 0.00in /  0mm
17:24 55.7 °F /  13.2 °C 31.1 °F /  -0.5 °C 30.03in /  1016.8hPa NNE 1.0mph /  1.6km/h 8.0mph /  12.9km/h 39% 0.00in /  0mm
17:30 56.1 °F /  13.4 °C 31.5 °F /  -0.3 °C 30.03in /  1016.8hPa North 2.0mph /  3.2km/h 7.0mph /  11.3km/h 39% 0.00in /  0mm
17:35 56.2 °F /  13.4 °C 30.9 °F /  -0.6 °C 30.03in /  1016.8hPa NNE 3.0mph /  4.8km/h 8.0mph /  12.9km/h 38% 0.00in /  0mm
17:39 55.7 °F /  13.2 °C 31.1 °F /  -0.5 °C 30.04in /  1017.2hPa North 3.0mph /  4.8km/h 8.0mph /  12.9km/h 39% 0.00in /  0mm
17:44 55.3 °F /  12.9 °C 30.8 °F /  -0.7 °C 30.04in /  1017.2hPa North 1.0mph /  1.6km/h 8.0mph /  12.9km/h 39% 0.00in /  0mm
17:50 55.3 °F /  12.9 °C 30.8 °F /  -0.7 °C 30.05in /  1017.5hPa North 2.0mph /  3.2km/h 7.0mph /  11.3km/h 39% 0.00in /  0mm
17:54 55.4 °F /  13 °C 30.9 °F /  -0.6 °C 30.05in /  1017.5hPa NNE 1.0mph /  1.6km/h 7.0mph /  11.3km/h 39% 0.00in /  0mm
17:59 55.5 °F /  13.1 °C 30.3 °F /  -0.9 °C 30.05in /  1017.5hPa North 1.0mph /  1.6km/h 6.0mph /  9.7km/h 38% 0.00in /  0mm
18:04 55.0 °F /  12.8 °C 30.5 °F /  -0.8 °C 30.05in /  1017.5hPa Calm   7.0mph /  11.3km/h 39% 0.00in /  0mm
18:10 54.4 °F /  12.4 °C 30.6 °F /  -0.8 °C 30.05in /  1017.5hPa Calm   7.0mph /  11.3km/h 40% 0.00in /  0mm
18:14 54.1 °F /  12.3 °C 30.9 °F /  -0.6 °C 30.05in /  1017.5hPa NNE 1.0mph /  1.6km/h 5.0mph /  8km/h 41% 0.00in /  0mm
18:20 53.9 °F /  12.2 °C 30.1 °F /  -1.1 °C 30.06in /  1017.8hPa NNE 1.0mph /  1.6km/h 4.0mph /  6.4km/h 40% 0.00in /  0mm
18:24 53.4 °F /  11.9 °C 29.7 °F /  -1.3 °C 30.06in /  1017.8hPa NNE 1.0mph /  1.6km/h 5.0mph /  8km/h 40% 0.00in /  0mm
18:30 52.8 °F /  11.6 °C 30.3 °F /  -0.9 °C 30.06in /  1017.8hPa Calm   5.0mph /  8km/h 42% 0.00in /  0mm
18:34 52.0 °F /  11.1 °C 30.2 °F /  -1 °C 30.07in /  1018.2hPa Calm   6.0mph /  9.7km/h 43% 0.00in /  0mm
18:40 51.4 °F /  10.8 °C 30.2 °F /  -1 °C 30.07in /  1018.2hPa NW 3.0mph /  4.8km/h 6.0mph /  9.7km/h 44% 0.00in /  0mm
18:44 50.8 °F /  10.4 °C 30.2 °F /  -1 °C 30.07in /  1018.2hPa Calm   6.0mph /  9.7km/h 45% 0.00in /  0mm
18:50 50.6 °F /  10.3 °C 30.6 °F /  -0.8 °C 30.07in /  1018.2hPa Calm   5.0mph /  8km/h 46% 0.00in /  0mm
18:54 50.4 °F /  10.2 °C 29.9 °F /  -1.2 °C 30.07in /  1018.2hPa Calm   2.0mph /  3.2km/h 45% 0.00in /  0mm
18:59 50.1 °F /  10.1 °C 30.1 °F /  -1.1 °C 30.07in /  1018.2hPa Calm   2.0mph /  3.2km/h 46% 0.00in /  0mm
19:05 49.8 °F /  9.9 °C 30.4 °F /  -0.9 °C 30.07in /  1018.2hPa Calm   4.0mph /  6.4km/h 47% 0.00in /  0mm
19:09 49.5 °F /  9.7 °C 30.1 °F /  -1.1 °C 30.06in /  1017.8hPa Calm   4.0mph /  6.4km/h 47% 0.00in /  0mm
19:15 49.2 °F /  9.6 °C 30.4 °F /  -0.9 °C 30.07in /  1018.2hPa Calm   2.0mph /  3.2km/h 48% 0.00in /  0mm
19:19 48.7 °F /  9.3 °C 29.4 °F /  -1.4 °C 30.07in /  1018.2hPa Calm   1.0mph /  1.6km/h 47% 0.00in /  0mm
19:25 48.1 °F /  8.9 °C 33.2 °F /  0.7 °C 30.07in /  1018.2hPa Calm   1.0mph /  1.6km/h 56% 0.00in /  0mm
19:30 47.4 °F /  8.6 °C 32.9 °F /  0.5 °C 30.08in /  1018.5hPa Calm     57% 0.00in /  0mm
19:35 46.4 °F /  8 °C 31.1 °F /  -0.5 °C 30.08in /  1018.5hPa Calm     55% 0.00in /  0mm
19:40 45.9 °F /  7.7 °C 30.6 °F /  -0.8 °C 30.08in /  1018.5hPa Calm     55% 0.00in /  0mm
19:45 45.5 °F /  7.5 °C 31.6 °F /  -0.2 °C 30.08in /  1018.5hPa Calm     58% 0.00in /  0mm
19:50 45.0 °F /  7.2 °C 31.1 °F /  -0.5 °C 30.08in /  1018.5hPa Calm     58% 0.00in /  0mm
19:55 44.7 °F /  7.1 °C 31.7 °F /  -0.2 °C 30.08in /  1018.5hPa Calm   1.0mph /  1.6km/h 60% 0.00in /  0mm
20:00 44.5 °F /  6.9 °C 31.5 °F /  -0.3 °C 30.09in /  1018.8hPa Calm   1.0mph /  1.6km/h 60% 0.00in /  0mm
20:05 44.3 °F /  6.8 °C 31.7 °F /  -0.2 °C 30.09in /  1018.8hPa Calm   1.0mph /  1.6km/h 61% 0.00in /  0mm
20:10 44.2 °F /  6.8 °C 30.8 °F /  -0.7 °C 30.09in /  1018.8hPa Calm   1.0mph /  1.6km/h 59% 0.00in /  0mm
20:15 43.9 °F /  6.6 °C 30.1 °F /  -1.1 °C 30.09in /  1018.8hPa Calm     58% 0.00in /  0mm
20:20 44.0 °F /  6.7 °C 31.0 °F /  -0.6 °C 30.09in /  1018.8hPa Calm     60% 0.00in /  0mm
20:25 44.0 °F /  6.7 °C 31.8 °F /  -0.1 °C 30.09in /  1018.8hPa Calm     62% 0.00in /  0mm
20:30 43.8 °F /  6.6 °C 30.0 °F /  -1.1 °C 30.09in /  1018.8hPa Calm     58% 0.00in /  0mm
20:35 43.6 °F /  6.4 °C 31.0 °F /  -0.6 °C 30.09in /  1018.8hPa Calm   1.0mph /  1.6km/h 61% 0.00in /  0mm
20:40 43.3 °F /  6.3 °C 30.4 °F /  -0.9 °C 30.09in /  1018.8hPa Calm   1.0mph /  1.6km/h 60% 0.00in /  0mm
20:45 43.2 °F /  6.2 °C 29.8 °F /  -1.2 °C 30.09in /  1018.8hPa NW 1.0mph /  1.6km/h 3.0mph /  4.8km/h 59% 0.00in /  0mm
20:50 43.2 °F /  6.2 °C 29.8 °F /  -1.2 °C 30.10in /  1019.2hPa Calm   3.0mph /  4.8km/h 59% 0.00in /  0mm
20:55 42.9 °F /  6.1 °C 28.7 °F /  -1.8 °C 30.10in /  1019.2hPa Calm   1.0mph /  1.6km/h 57% 0.00in /  0mm
21:00 42.8 °F /  6 °C 28.6 °F /  -1.9 °C 30.10in /  1019.2hPa Calm     57% 0.00in /  0mm
21:05 42.9 °F /  6.1 °C 27.8 °F /  -2.3 °C 30.11in /  1019.5hPa Calm     55% 0.00in /  0mm
21:10 42.9 °F /  6.1 °C 30.0 °F /  -1.1 °C 30.11in /  1019.5hPa Calm     60% 0.00in /  0mm
21:15 42.9 °F /  6.1 °C 29.6 °F /  -1.3 °C 30.11in /  1019.5hPa Calm     59% 0.00in /  0mm
21:20 42.9 °F /  6.1 °C 29.6 °F /  -1.3 °C 30.11in /  1019.5hPa Calm     59% 0.00in /  0mm
21:25 42.8 °F /  6 °C 28.6 °F /  -1.9 °C 30.12in /  1019.9hPa Calm   2.0mph /  3.2km/h 57% 0.00in /  0mm
21:30 43.0 °F /  6.1 °C 29.7 °F /  -1.3 °C 30.12in /  1019.9hPa Calm   2.0mph /  3.2km/h 59% 0.00in /  0mm
21:40 42.7 °F /  5.9 °C 30.2 °F /  -1 °C 30.13in /  1020.2hPa Calm   2.0mph /  3.2km/h 61% 0.00in /  0mm
21:45 42.7 °F /  5.9 °C 29.4 °F /  -1.4 °C 30.13in /  1020.2hPa Calm     59% 0.00in /  0mm
21:50 42.2 °F /  5.7 °C 29.7 °F /  -1.3 °C 30.12in /  1019.9hPa Calm     61% 0.00in /  0mm
21:55 41.9 °F /  5.5 °C 29.8 °F /  -1.2 °C 30.12in /  1019.9hPa Calm     62% 0.00in /  0mm
22:00 41.1 °F /  5.1 °C 28.7 °F /  -1.8 °C 30.13in /  1020.2hPa Calm     61% 0.00in /  0mm
22:05 40.8 °F /  4.9 °C 28.0 °F /  -2.2 °C 30.13in /  1020.2hPa Calm     60% 0.00in /  0mm
22:10 40.9 °F /  4.9 °C 27.7 °F /  -2.4 °C 30.13in /  1020.2hPa Calm     59% 0.00in /  0mm
22:15 41.5 °F /  5.3 °C 29.8 °F /  -1.2 °C 30.14in /  1020.5hPa Calm   2.0mph /  3.2km/h 63% 0.00in /  0mm
22:20 42.1 °F /  5.6 °C 28.8 °F /  -1.8 °C 30.14in /  1020.5hPa Calm   2.0mph /  3.2km/h 59% 0.00in /  0mm
22:25 42.2 °F /  5.7 °C 28.1 °F /  -2.2 °C 30.14in /  1020.5hPa Calm   2.0mph /  3.2km/h 57% 0.00in /  0mm
22:30 42.5 °F /  5.8 °C 27.0 °F /  -2.8 °C 30.14in /  1020.5hPa Calm   3.0mph /  4.8km/h 54% 0.00in /  0mm
22:35 42.7 °F /  5.9 °C 27.2 °F /  -2.7 °C 30.14in /  1020.5hPa Calm   3.0mph /  4.8km/h 54% 0.00in /  0mm
22:40 42.6 °F /  5.9 °C 29.7 °F /  -1.3 °C 30.14in /  1020.5hPa Calm   2.0mph /  3.2km/h 60% 0.00in /  0mm
22:45 42.2 °F /  5.7 °C 29.3 °F /  -1.5 °C 30.13in /  1020.2hPa NW 1.0mph /  1.6km/h 2.0mph /  3.2km/h 60% 0.00in /  0mm
22:50 42.0 °F /  5.6 °C 28.3 °F /  -2.1 °C 30.13in /  1020.2hPa Calm   2.0mph /  3.2km/h 58% 0.00in /  0mm
22:55 42.0 °F /  5.6 °C 27.0 °F /  -2.8 °C 30.13in /  1020.2hPa NNE 2.0mph /  3.2km/h 4.0mph /  6.4km/h 55% 0.00in /  0mm
23:00 42.0 °F /  5.6 °C 28.7 °F /  -1.8 °C 30.13in /  1020.2hPa Calm   4.0mph /  6.4km/h 59% 0.00in /  0mm
23:05 41.8 °F /  5.4 °C 28.5 °F /  -1.9 °C 30.13in /  1020.2hPa Calm   2.0mph /  3.2km/h 59% 0.00in /  0mm
23:10 41.5 °F /  5.3 °C 27.8 °F /  -2.3 °C 30.13in /  1020.2hPa Calm   2.0mph /  3.2km/h 58% 0.00in /  0mm
23:15 41.4 °F /  5.2 °C 27.7 °F /  -2.4 °C 30.13in /  1020.2hPa Calm   2.0mph /  3.2km/h 58% 0.00in /  0mm
23:20 41.6 °F /  5.3 °C 28.7 °F /  -1.8 °C 30.13in /  1020.2hPa NNE 1.0mph /  1.6km/h 3.0mph /  4.8km/h 60% 0.00in /  0mm
23:25 41.8 °F /  5.4 °C 28.5 °F /  -1.9 °C 30.13in /  1020.2hPa Calm   3.0mph /  4.8km/h 59% 0.00in /  0mm
23:30 42.3 °F /  5.7 °C 27.7 °F /  -2.4 °C 30.13in /  1020.2hPa Calm   3.0mph /  4.8km/h 56% 0.00in /  0mm
23:35 42.3 °F /  5.7 °C 25.9 °F /  -3.4 °C 30.13in /  1020.2hPa Calm   2.0mph /  3.2km/h 52% 0.00in /  0mm
23:45 42.6 °F /  5.9 °C 28.0 °F /  -2.2 °C 30.13in /  1020.2hPa Calm   2.0mph /  3.2km/h 56% 0.00in /  0mm
23:50 42.4 °F /  5.8 °C 26.5 °F /  -3.1 °C 30.12in /  1019.9hPa ENE 1.0mph /  1.6km/h 3.0mph /  4.8km/h 53% 0.00in /  0mm
23:55 42.4 °F /  5.8 °C 27.8 °F /  -2.3 °C 30.12in /  1019.9hPa Calm   3.0mph /  4.8km/h 56% 0.00in /  0mm
Westford Weather
Compliments of Weather Underground

 
 
Current Radar Loop:

Copyright © WestfordWeather.net 2007-2014. All rights reserved.